createdAt,value
2019-01-19T00:01:21.609Z,92.80
2019-01-19T00:04:09.411Z,80.17
2019-01-19T00:06:43.679Z,85.37
2019-01-19T00:09:15.343Z,90.50
2019-01-19T00:12:12.172Z,99.07
2019-01-19T00:15:01.799Z,96.93
2019-01-19T00:17:48.202Z,93.83
2019-01-19T00:20:33.778Z,100.27
2019-01-19T00:23:25.090Z,103.90
2019-01-19T00:26:30.959Z,105.27
2019-01-19T00:29:21.501Z,106.33
2019-01-19T00:31:59.599Z,104.50
2019-01-19T00:34:38.750Z,105.43
2019-01-19T00:37:12.662Z,96.27
2019-01-19T00:39:57.319Z,102.07
2019-01-19T00:42:45.086Z,113.77
2019-01-19T00:45:32.912Z,105.40
2019-01-19T00:48:19.489Z,112.13
2019-01-19T00:51:19.497Z,112.93
2019-01-19T00:53:51.575Z,112.30
2019-01-19T00:56:39.831Z,107.10
2019-01-19T00:59:10.644Z,109.27
2019-01-19T01:01:48.688Z,107.90
2019-01-19T01:04:30.538Z,114.20
2019-01-19T01:07:24.400Z,107.87
2019-01-19T01:09:58.221Z,108.93
2019-01-19T01:12:34.065Z,110.07
2019-01-19T01:15:17.747Z,108.43
2019-01-19T01:17:54.600Z,95.60
2019-01-19T01:20:42.458Z,102.10
2019-01-19T01:23:36.237Z,97.47
2019-01-19T01:26:45.322Z,109.43
2019-01-19T01:29:42.313Z,100.37
2019-01-19T01:32:14.742Z,108.57
2019-01-19T01:35:08.638Z,103.87
2019-01-19T01:37:41.838Z,104.90
2019-01-19T01:40:47.714Z,100.73
2019-01-19T01:43:19.086Z,95.70
2019-01-19T01:45:55.734Z,107.80
2019-01-19T01:48:35.246Z,111.97
2019-01-19T01:51:26.911Z,96.17
2019-01-19T01:54:26.948Z,108.27
2019-01-19T01:56:56.702Z,111.83
2019-01-19T01:59:47.342Z,107.00
2019-01-19T02:02:35.139Z,106.03
2019-01-19T02:05:10.451Z,100.27
2019-01-19T02:07:55.635Z,105.90
2019-01-19T02:10:52.277Z,106.57
2019-01-19T02:13:36.045Z,104.07
2019-01-19T02:16:26.958Z,105.03
2019-01-19T02:18:59.394Z,102.03
2019-01-19T02:21:46.643Z,100.80
2019-01-19T02:24:30.079Z,101.17
2019-01-19T02:27:29.867Z,96.43
2019-01-19T02:30:16.058Z,101.53
2019-01-19T02:33:07.143Z,113.93
2019-01-19T02:35:49.721Z,103.77
2019-01-19T02:38:25.067Z,100.70
2019-01-19T02:41:11.267Z,104.27
2019-01-19T02:44:05.343Z,106.00
2019-01-19T02:46:51.706Z,106.73
2019-01-19T02:49:32.516Z,104.37
2019-01-19T02:52:32.514Z,106.70
2019-01-19T02:55:14.703Z,112.40
2019-01-19T02:58:05.405Z,107.10
2019-01-19T03:00:38.700Z,104.93
2019-01-19T03:03:26.503Z,99.63
2019-01-19T03:05:58.321Z,94.57
2019-01-19T03:08:31.930Z,99.70
2019-01-19T03:11:12.260Z,96.70
2019-01-19T03:13:47.238Z,107.57
2019-01-19T03:16:35.347Z,96.90
2019-01-19T03:19:41.292Z,96.80
2019-01-19T03:22:40.966Z,99.33
2019-01-19T03:25:28.736Z,104.77
2019-01-19T03:28:04.319Z,94.97
2019-01-19T03:30:38.834Z,87.77
2019-01-19T03:33:24.017Z,95.57
2019-01-19T03:36:04.140Z,84.93
2019-01-19T03:38:45.169Z,90.27
2019-01-19T03:41:50.965Z,94.10
2019-01-19T03:44:26.242Z,90.27
2019-01-19T03:47:17.143Z,95.17
2019-01-19T03:50:06.335Z,87.90
2019-01-19T03:52:50.548Z,85.97
2019-01-19T03:55:56.472Z,84.50
2019-01-19T03:58:31.365Z,97.67
2019-01-19T04:01:12.249Z,90.60
2019-01-19T04:04:00.116Z,93.53
2019-01-19T04:07:00.005Z,90.87
2019-01-19T04:09:35.114Z,90.63
2019-01-19T04:12:31.980Z,97.37
2019-01-19T04:15:22.108Z,92.37
2019-01-19T04:18:00.156Z,89.70
2019-01-19T04:20:38.638Z,92.73
2019-01-19T04:23:07.376Z,93.73
2019-01-19T04:25:43.764Z,95.97
2019-01-19T04:28:13.714Z,89.17
2019-01-19T04:30:42.297Z,99.23
2019-01-19T04:33:10.663Z,91.60
2019-01-19T04:35:39.311Z,89.57
2019-01-19T04:38:09.990Z,84.07
2019-01-19T04:40:38.659Z,92.00
2019-01-19T04:43:07.358Z,79.90
2019-01-19T04:45:35.969Z,82.07
2019-01-19T04:48:04.527Z,78.87
2019-01-19T04:50:33.171Z,83.43
2019-01-19T04:53:03.179Z,81.83
2019-01-19T04:55:31.770Z,89.60
2019-01-19T04:58:00.312Z,78.03
2019-01-19T05:00:28.734Z,79.50
2019-01-19T05:02:57.206Z,86.50
2019-01-19T05:05:25.665Z,84.10
2019-01-19T05:07:54.146Z,97.13
2019-01-19T05:10:23.460Z,91.03
2019-01-19T05:12:53.137Z,88.93
2019-01-19T05:15:22.072Z,84.63
2019-01-19T05:17:50.580Z,82.53
2019-01-19T05:20:19.206Z,82.07
2019-01-19T05:22:51.035Z,73.67
2019-01-19T05:25:19.540Z,75.23
2019-01-19T05:27:48.272Z,78.53
2019-01-19T05:30:17.670Z,78.20
2019-01-19T05:32:46.169Z,81.47
2019-01-19T05:35:15.075Z,82.07
2019-01-19T05:37:43.591Z,78.63
2019-01-19T05:40:12.412Z,82.70
2019-01-19T05:42:40.892Z,73.27
2019-01-19T05:45:10.199Z,79.73
2019-01-19T05:47:38.654Z,82.40
2019-01-19T05:50:09.539Z,82.60
2019-01-19T05:52:40.257Z,74.77
2019-01-19T05:55:08.660Z,75.70
2019-01-19T05:57:37.357Z,63.43
2019-01-19T06:00:08.079Z,66.77
2019-01-19T06:02:36.713Z,72.73
2019-01-19T06:05:05.335Z,68.30
2019-01-19T06:07:33.760Z,71.53
2019-01-19T06:10:02.417Z,67.93
2019-01-19T06:12:30.998Z,66.17
2019-01-19T06:14:59.585Z,75.60
2019-01-19T06:17:28.113Z,69.20
2019-01-19T06:19:56.695Z,66.70
2019-01-19T06:22:25.394Z,74.50
2019-01-19T06:24:54.915Z,69.73
2019-01-19T06:27:23.499Z,70.20
2019-01-19T06:29:51.944Z,75.50
2019-01-19T06:32:20.575Z,69.00
2019-01-19T06:34:48.985Z,66.20
2019-01-19T06:37:17.510Z,74.53
2019-01-19T06:39:46.085Z,68.83
2019-01-19T06:42:14.508Z,65.57
2019-01-19T06:44:43.480Z,68.90
2019-01-19T06:47:12.123Z,68.23
2019-01-19T06:49:40.711Z,67.17
2019-01-19T06:52:09.108Z,64.20
2019-01-19T06:54:37.798Z,72.87
2019-01-19T06:57:06.278Z,65.33
2019-01-19T06:59:34.756Z,64.80
2019-01-19T07:02:03.359Z,59.80
2019-01-19T07:04:31.914Z,65.37
2019-01-19T07:07:02.771Z,61.47
2019-01-19T07:09:30.612Z,63.53
2019-01-19T07:11:59.470Z,57.80
2019-01-19T07:14:28.264Z,63.23
2019-01-19T07:16:56.779Z,57.13
2019-01-19T07:19:25.308Z,61.53
2019-01-19T07:21:54.065Z,58.90
2019-01-19T07:24:22.591Z,51.37
2019-01-19T07:26:54.898Z,54.73
2019-01-19T07:29:23.573Z,52.93
2019-01-19T07:32:00.182Z,57.23
2019-01-19T07:34:31.914Z,50.73
2019-01-19T07:37:01.976Z,51.37
2019-01-19T07:39:30.570Z,42.13
2019-01-19T07:41:59.073Z,50.43
2019-01-19T07:44:27.670Z,45.73
2019-01-19T07:46:56.955Z,46.63
2019-01-19T07:49:25.469Z,46.97
2019-01-19T07:51:54.006Z,48.93
2019-01-19T07:54:22.691Z,50.70
2019-01-19T07:56:52.192Z,45.20
2019-01-19T07:59:22.741Z,47.07
2019-01-19T08:01:51.639Z,49.10
2019-01-19T08:04:21.755Z,46.33
2019-01-19T08:06:55.368Z,42.33
2019-01-19T08:09:23.934Z,50.20
2019-01-19T08:11:52.502Z,43.83
2019-01-19T08:14:22.112Z,44.47
2019-01-19T08:16:50.753Z,41.13
2019-01-19T08:19:19.300Z,41.30
2019-01-19T08:21:48.026Z,44.57
2019-01-19T08:24:19.793Z,40.17
2019-01-19T08:26:48.307Z,46.50
2019-01-19T08:29:18.392Z,43.10
2019-01-19T08:31:49.775Z,43.93
2019-01-19T08:34:18.714Z,39.30
2019-01-19T08:36:47.272Z,42.80
2019-01-19T08:39:18.898Z,37.37
2019-01-19T08:41:47.373Z,39.97
2019-01-19T08:44:15.766Z,55.60
2019-01-19T08:46:47.295Z,36.13
2019-01-19T08:49:15.743Z,40.47
2019-01-19T08:51:44.243Z,39.00
2019-01-19T08:54:12.617Z,38.60
2019-01-19T08:56:41.204Z,40.27
2019-01-19T08:59:09.892Z,35.47
2019-01-19T09:01:38.555Z,39.57
2019-01-19T09:04:08.381Z,36.13
2019-01-19T09:06:37.169Z,42.17
2019-01-19T09:09:06.868Z,31.63
2019-01-19T09:11:35.577Z,36.33
2019-01-19T09:14:05.908Z,30.50
2019-01-19T09:16:39.610Z,36.60
2019-01-19T09:19:06.112Z,32.53
2019-01-19T09:21:45.931Z,32.63
2019-01-19T09:24:19.569Z,33.03
2019-01-19T09:26:48.080Z,31.67
2019-01-19T09:29:16.711Z,37.33
2019-01-19T09:31:48.470Z,32.83
2019-01-19T09:34:33.958Z,29.17
2019-01-19T09:37:01.762Z,35.23
2019-01-19T09:39:37.253Z,30.17
2019-01-19T09:42:06.731Z,31.97
2019-01-19T09:44:35.553Z,27.27
2019-01-19T09:47:04.186Z,31.23
2019-01-19T09:49:32.784Z,28.80
2019-01-19T09:52:01.675Z,31.20
2019-01-19T09:54:30.568Z,28.80
2019-01-19T09:56:59.537Z,27.13
2019-01-19T09:59:28.214Z,27.80
2019-01-19T10:01:58.418Z,29.10
2019-01-19T10:04:27.413Z,24.87
2019-01-19T10:06:57.325Z,27.70
2019-01-19T10:09:26.216Z,29.23
2019-01-19T10:11:55.571Z,26.63
2019-01-19T10:14:24.359Z,22.30
2019-01-19T10:16:53.037Z,22.93
2019-01-19T10:19:21.796Z,22.10
2019-01-19T10:21:52.268Z,27.47
2019-01-19T10:24:20.935Z,22.00
2019-01-19T10:26:50.110Z,20.80
2019-01-19T10:29:20.236Z,19.87
2019-01-19T10:31:49.049Z,22.20
2019-01-19T10:34:17.788Z,21.67
2019-01-19T10:36:46.616Z,18.90
2019-01-19T10:39:15.336Z,21.53
2019-01-19T10:41:44.183Z,21.20
2019-01-19T10:44:14.266Z,16.80
2019-01-19T10:46:45.588Z,20.87
2019-01-19T10:49:16.697Z,21.60
2019-01-19T10:51:46.676Z,19.20
2019-01-19T10:54:15.364Z,19.30
2019-01-19T10:56:44.154Z,23.60
2019-01-19T10:59:12.942Z,18.23
2019-01-19T11:01:41.763Z,21.50
2019-01-19T11:04:10.399Z,17.73
2019-01-19T11:06:39.230Z,17.90
2019-01-19T11:09:08.114Z,13.90
2019-01-19T11:11:37.034Z,16.77
2019-01-19T11:14:05.906Z,19.23
2019-01-19T11:16:34.694Z,18.23
2019-01-19T11:19:04.200Z,19.10
2019-01-19T11:21:32.831Z,19.53
2019-01-19T11:24:01.386Z,19.20
2019-01-19T11:26:30.071Z,20.67
2019-01-19T11:28:58.887Z,19.50
2019-01-19T11:31:27.986Z,16.73
2019-01-19T11:33:56.833Z,16.60
2019-01-19T11:36:25.462Z,16.37
2019-01-19T11:38:55.140Z,16.17
2019-01-19T11:41:23.799Z,16.47
2019-01-19T11:43:55.932Z,15.70
2019-01-19T11:46:26.489Z,16.93
2019-01-19T11:48:55.547Z,24.53
2019-01-19T11:51:24.105Z,18.27
2019-01-19T11:53:52.719Z,21.33
2019-01-19T11:56:42.689Z,18.37
2019-01-19T11:59:11.699Z,20.50
2019-01-19T12:01:40.348Z,16.60
2019-01-19T12:04:11.698Z,16.50
2019-01-19T12:06:40.461Z,18.40
2019-01-19T12:09:09.088Z,19.30
2019-01-19T12:11:38.826Z,17.80
2019-01-19T12:14:07.669Z,17.70
2019-01-19T12:16:39.242Z,16.77
2019-01-19T12:19:20.451Z,19.13
2019-01-19T12:21:58.324Z,16.50
2019-01-19T12:24:40.323Z,16.97
2019-01-19T12:27:14.002Z,15.00
2019-01-19T12:33:04.729Z,15.00
2019-01-19T12:35:35.885Z,15.80
2019-01-19T12:41:30.438Z,20.47
2019-01-19T12:43:59.390Z,16.77
2019-01-19T12:46:29.254Z,16.40
2019-01-19T12:49:00.905Z,15.90
2019-01-19T12:51:29.490Z,17.17
2019-01-19T12:53:58.335Z,15.77
2019-01-19T12:56:56.404Z,14.30
2019-01-19T12:59:25.163Z,15.67
2019-01-19T13:01:58.164Z,16.67
2019-01-19T13:04:27.170Z,13.33
2019-01-19T13:07:00.413Z,14.97
2019-01-19T13:09:30.576Z,13.77
2019-01-19T13:12:08.036Z,13.70
2019-01-19T13:14:39.028Z,14.93
2019-01-19T13:17:25.879Z,14.17
2019-01-19T13:20:19.102Z,16.10
2019-01-19T13:23:15.935Z,13.73
2019-01-19T13:26:06.754Z,12.60
2019-01-19T13:28:54.104Z,10.73
2019-01-19T13:31:27.707Z,12.23
2019-01-19T13:34:19.559Z,13.60
2019-01-19T13:37:10.401Z,15.43
2019-01-19T13:40:03.154Z,11.40
2019-01-19T13:42:49.752Z,16.17
2019-01-19T13:45:41.032Z,16.83
2019-01-19T13:48:25.171Z,13.43
2019-01-19T13:51:28.234Z,14.23
2019-01-19T13:54:16.369Z,16.40
2019-01-19T13:57:11.763Z,16.10
2019-01-19T13:59:47.562Z,15.63
2019-01-19T14:02:44.821Z,16.77
2019-01-19T14:05:47.887Z,15.83
2019-01-19T14:08:35.922Z,16.30
2019-01-19T14:11:11.113Z,16.50
2019-01-19T14:14:08.471Z,17.97
2019-01-19T14:17:14.770Z,19.27
2019-01-19T14:19:59.735Z,19.80
2019-01-19T14:22:50.713Z,22.40
2019-01-19T14:25:33.988Z,22.80
2019-01-19T14:28:27.376Z,22.83
2019-01-19T14:31:19.288Z,21.27
2019-01-19T14:34:10.591Z,21.37
2019-01-19T14:36:55.274Z,22.13
2019-01-19T14:39:48.020Z,24.20
2019-01-19T14:45:02.780Z,22.50
2019-01-19T14:47:37.912Z,24.27
2019-01-19T14:50:28.502Z,22.67
2019-01-19T14:53:22.498Z,25.43
2019-01-19T14:56:20.508Z,21.30
2019-01-19T14:58:57.297Z,21.50
2019-01-19T15:02:44.255Z,21.30
2019-01-19T15:05:35.882Z,23.47
2019-01-19T15:08:40.446Z,21.13
2019-01-19T15:11:49.552Z,25.77
2019-01-19T15:23:47.002Z,20.57
2019-01-19T15:26:56.628Z,25.10
2019-01-19T15:29:49.374Z,22.77
2019-01-19T15:32:38.429Z,24.07
2019-01-19T15:35:20.884Z,24.07
2019-01-19T15:38:26.196Z,25.67
2019-01-19T15:41:11.812Z,23.73
2019-01-19T15:43:49.766Z,22.93
2019-01-19T16:45:20.106Z,24.67
2019-01-19T16:48:31.352Z,23.73
2019-01-19T17:03:24.222Z,21.83
2019-01-19T17:13:51.220Z,23.30
2019-01-19T17:16:45.589Z,24.70
2019-01-19T17:19:33.969Z,25.10
2019-01-19T17:38:41.435Z,27.20
2019-01-19T17:48:45.558Z,24.27
2019-01-19T17:51:51.908Z,22.57
2019-01-19T17:58:06.604Z,23.47
2019-01-19T18:00:52.596Z,28.67
2019-01-19T18:03:39.445Z,31.23
2019-01-19T18:06:21.211Z,30.10
2019-01-19T18:09:16.229Z,29.43
2019-01-19T18:12:24.546Z,25.23
2019-01-19T18:15:27.704Z,25.00
2019-01-19T18:18:18.263Z,24.97
2019-01-19T18:21:17.207Z,27.73
2019-01-19T18:24:06.626Z,26.67
2019-01-19T18:27:03.512Z,24.57
2019-01-19T18:29:50.850Z,24.60
2019-01-19T18:32:29.397Z,25.60
2019-01-19T18:35:37.779Z,26.73
2019-01-19T18:38:33.659Z,29.93
2019-01-19T18:41:22.545Z,27.43
2019-01-19T18:44:23.604Z,27.27
2019-01-19T18:47:26.136Z,26.63
2019-01-19T18:50:33.843Z,29.67
2019-01-19T18:53:41.688Z,24.63
2019-01-19T19:14:03.485Z,22.00
2019-01-19T19:17:05.860Z,25.80
2019-01-19T19:19:42.500Z,23.87
2019-01-19T19:22:24.562Z,25.60
2019-01-19T19:25:17.423Z,25.40
2019-01-19T19:31:20.188Z,22.07
2019-01-19T19:47:33.613Z,25.77
2019-01-19T19:50:20.446Z,29.63
2019-01-19T19:52:54.541Z,27.53
2019-01-19T19:55:23.899Z,24.50
2019-01-19T19:57:55.261Z,24.87
2019-01-19T20:00:25.115Z,23.17
2019-01-19T20:02:53.962Z,25.63
2019-01-19T20:05:28.943Z,24.33
2019-01-19T20:08:06.022Z,22.70
2019-01-19T20:10:32.125Z,25.73
2019-01-19T20:13:01.331Z,23.73
2019-01-19T20:15:31.103Z,23.93
2019-01-19T20:18:02.222Z,21.20
2019-01-19T20:20:30.922Z,22.77
2019-01-19T20:23:02.460Z,26.17
2019-01-19T20:25:31.276Z,27.63
2019-01-19T20:28:02.166Z,23.83
2019-01-19T20:30:33.842Z,22.30
2019-01-19T20:33:05.680Z,25.17
2019-01-19T20:35:37.190Z,22.10
2019-01-19T20:38:05.834Z,21.70
2019-01-19T20:40:38.451Z,22.27
2019-01-19T20:43:07.161Z,23.47
2019-01-19T20:45:36.289Z,19.43
2019-01-19T20:48:05.016Z,26.50
2019-01-19T20:50:34.414Z,21.80
2019-01-19T20:53:05.421Z,24.13
2019-01-19T20:55:36.336Z,24.10
2019-01-19T20:58:10.304Z,25.67
2019-01-19T21:00:43.951Z,25.43
2019-01-19T21:03:16.453Z,24.20
2019-01-19T21:05:46.261Z,22.77
2019-01-19T21:08:14.872Z,22.37
2019-01-19T21:10:46.883Z,21.73
2019-01-19T21:13:18.154Z,18.77
2019-01-19T21:15:53.992Z,20.57
2019-01-19T21:18:22.638Z,19.77
2019-01-19T21:20:57.729Z,23.73
2019-01-19T21:23:26.551Z,22.87
2019-01-19T21:25:59.364Z,24.70
2019-01-19T21:28:31.423Z,24.10
2019-01-19T21:31:00.494Z,25.90
2019-01-19T21:33:40.239Z,21.53
2019-01-19T21:36:13.534Z,22.77
2019-01-19T21:38:45.399Z,26.57
2019-01-19T21:41:18.310Z,28.77
2019-01-19T21:43:51.877Z,27.60
2019-01-19T21:46:23.256Z,26.43
2019-01-19T21:48:53.571Z,22.40
2019-01-19T21:51:24.308Z,20.50
2019-01-19T21:53:53.210Z,19.60
2019-01-19T21:56:23.335Z,21.80
2019-01-19T21:58:52.506Z,22.53
2019-01-19T22:01:21.830Z,19.43
2019-01-19T22:03:55.274Z,20.30
2019-01-19T22:06:31.800Z,20.87
2019-01-19T22:09:03.783Z,20.97
2019-01-19T22:11:32.650Z,19.60
2019-01-19T22:14:04.436Z,23.93
2019-01-19T22:16:33.595Z,21.33
2019-01-19T22:19:20.119Z,19.80
2019-01-19T22:21:52.415Z,21.97
2019-01-19T22:24:26.684Z,19.43
2019-01-19T22:26:56.131Z,16.70
2019-01-19T22:29:36.220Z,21.27
2019-01-19T22:32:09.669Z,22.23
2019-01-19T22:34:42.136Z,19.47
2019-01-19T22:37:17.074Z,18.50
2019-01-19T22:39:58.733Z,17.37
2019-01-19T22:42:31.440Z,20.57
2019-01-19T22:45:05.457Z,18.33
2019-01-19T22:47:38.999Z,22.07
2019-01-19T22:50:11.380Z,19.17
2019-01-19T22:52:47.497Z,18.43
2019-01-19T22:55:19.216Z,17.93
2019-01-19T22:57:52.813Z,19.67
2019-01-19T23:00:29.151Z,18.80
2019-01-19T23:03:05.251Z,19.00
2019-01-19T23:05:35.464Z,19.00
2019-01-19T23:08:05.355Z,18.17
2019-01-19T23:10:34.566Z,18.43
2019-01-19T23:13:06.436Z,18.97
2019-01-19T23:16:05.165Z,21.37
2019-01-19T23:21:41.081Z,17.87
2019-01-19T23:24:17.222Z,24.40
2019-01-19T23:26:54.689Z,17.50
2019-01-19T23:29:28.496Z,20.53
2019-01-19T23:32:01.441Z,18.30
2019-01-19T23:34:34.988Z,22.80
2019-01-19T23:37:05.831Z,19.93
2019-01-19T23:39:34.461Z,20.50
2019-01-19T23:42:03.280Z,19.07
2019-01-19T23:44:36.805Z,20.40
2019-01-19T23:47:05.097Z,22.83
2019-01-19T23:49:35.079Z,17.97
2019-01-19T23:52:03.715Z,18.27
2019-01-19T23:54:34.237Z,18.40
2019-01-19T23:57:02.715Z,18.00
2019-01-19T23:59:31.504Z,18.70
